createdAt,value
2023-02-11T00:03:16.239Z,102273.22
2023-02-11T00:08:18.786Z,102268.16
2023-02-11T00:13:23.232Z,102248.22
2023-02-11T00:18:25.928Z,102275.22
2023-02-11T00:23:28.415Z,102275.53
2023-02-11T00:28:32.387Z,102283.63
2023-02-11T00:33:34.943Z,102295.28
2023-02-11T00:38:37.453Z,102282.59
2023-02-11T00:43:42.079Z,102276.41
2023-02-11T00:48:44.714Z,102291.63
2023-02-11T00:53:47.228Z,102280.75
2023-02-11T00:58:51.240Z,102267.72
2023-02-11T01:03:53.755Z,102261.91
2023-02-11T01:08:56.320Z,102263.72
2023-02-11T01:14:00.166Z,102275.38
2023-02-11T01:19:02.669Z,102281.66
2023-02-11T01:24:05.289Z,102281.50
2023-02-11T01:29:09.466Z,102280.59
2023-02-11T01:34:11.983Z,102267.09
2023-02-11T01:39:14.498Z,102255.41
2023-02-11T01:44:25.534Z,102241.13
2023-02-11T01:49:30.376Z,102221.31
2023-02-11T01:54:53.762Z,102206.91
2023-02-11T02:00:06.142Z,102200.28
2023-02-11T02:05:17.571Z,102215.16
2023-02-11T02:10:23.674Z,102203.22
2023-02-11T02:15:30.300Z,102200.91
2023-02-11T02:21:08.859Z,102202.69
2023-02-11T02:26:45.561Z,102205.47
2023-02-11T02:32:16.368Z,102202.25
2023-02-11T02:37:25.479Z,102205.13
2023-02-11T02:42:28.069Z,102215.09
2023-02-11T02:47:31.982Z,102223.06
2023-02-11T02:52:37.675Z,102213.72
2023-02-11T02:57:54.434Z,102212.59
2023-02-11T03:03:16.484Z,102212.75
2023-02-11T03:08:27.297Z,102208.59
2023-02-11T03:13:33.872Z,102194.66
2023-02-11T03:18:42.320Z,102216.44
2023-02-11T03:23:50.733Z,102207.84
2023-02-11T03:28:59.355Z,102182.66
2023-02-11T03:34:09.638Z,102166.22
2023-02-11T03:39:13.915Z,102161.91
2023-02-11T03:44:18.008Z,102134.91
2023-02-11T03:49:24.269Z,102144.25
2023-02-11T03:54:30.963Z,102126.91
2023-02-11T03:59:33.447Z,102125.84
2023-02-11T04:04:37.638Z,102132.00
2023-02-11T04:09:40.180Z,102136.28
2023-02-11T04:14:42.662Z,102131.34
2023-02-11T04:19:46.500Z,102148.84
2023-02-11T04:24:49.054Z,102148.22
2023-02-11T04:29:51.550Z,102145.75
2023-02-11T04:34:55.744Z,102132.84
2023-02-11T04:39:58.230Z,102144.81
2023-02-11T04:45:00.729Z,102137.13
2023-02-11T04:50:05.088Z,102139.06
2023-02-11T04:55:08.030Z,102128.13
2023-02-11T05:00:11.658Z,102130.13
2023-02-11T05:05:15.525Z,102127.66
2023-02-11T05:10:18.188Z,102109.66
2023-02-11T05:15:20.668Z,102096.72
2023-02-11T05:20:24.599Z,102096.53
2023-02-11T05:25:27.082Z,102097.88
2023-02-11T05:30:29.718Z,102087.84
2023-02-11T05:35:33.636Z,102083.84
2023-02-11T05:40:36.091Z,102067.81
2023-02-11T05:45:38.669Z,102074.06
2023-02-11T05:50:42.832Z,102060.50
2023-02-11T05:55:45.314Z,102054.78
2023-02-11T06:00:47.844Z,102042.28
2023-02-11T06:05:51.906Z,102045.16
2023-02-11T06:10:54.566Z,102034.34
2023-02-11T06:15:58.179Z,102020.75
2023-02-11T06:21:02.330Z,102039.47
2023-02-11T06:26:06.509Z,102050.72
2023-02-11T06:31:09.760Z,102062.94
2023-02-11T06:36:18.195Z,102057.69
2023-02-11T06:41:21.451Z,102068.16
2023-02-11T06:46:24.063Z,102056.03
2023-02-11T06:51:28.318Z,102075.63
2023-02-11T06:56:30.814Z,102089.22
2023-02-11T07:01:33.345Z,102098.63
2023-02-11T07:06:37.940Z,102110.28
2023-02-11T07:11:40.443Z,102113.41
2023-02-11T07:16:42.965Z,102110.00
2023-02-11T07:21:48.515Z,102116.56
2023-02-11T07:26:51.000Z,102112.25
2023-02-11T07:31:53.529Z,102100.13
2023-02-11T07:36:57.354Z,102107.97
2023-02-11T07:42:00.024Z,102123.66
2023-02-11T07:47:02.595Z,102126.53
2023-02-11T07:52:06.551Z,102128.47
2023-02-11T07:57:09.022Z,102121.84
2023-02-11T08:02:11.532Z,102130.09
2023-02-11T08:07:17.712Z,102141.53
2023-02-11T08:12:20.186Z,102135.94
2023-02-11T08:17:22.780Z,102141.81
2023-02-11T08:22:26.638Z,102138.06
2023-02-11T08:27:29.250Z,102128.25
2023-02-11T08:32:31.753Z,102142.97
2023-02-11T08:37:35.600Z,102155.00
2023-02-11T08:42:38.077Z,102140.88
2023-02-11T08:47:41.181Z,102159.88
2023-02-11T08:52:45.059Z,102164.31
2023-02-11T08:57:47.530Z,102143.50
2023-02-11T09:02:50.011Z,102163.69
2023-02-11T09:07:53.873Z,102162.38
2023-02-11T09:12:56.389Z,102167.59
2023-02-11T09:17:59.051Z,102163.56
2023-02-11T09:23:02.914Z,102172.22
2023-02-11T09:28:05.666Z,102163.81
2023-02-11T09:33:08.221Z,102179.03
2023-02-11T09:38:12.058Z,102174.94
2023-02-11T09:43:20.971Z,102167.91
2023-02-11T09:48:24.424Z,102177.31
2023-02-11T09:53:30.506Z,102159.22
2023-02-11T09:58:36.324Z,102162.53
2023-02-11T10:03:58.513Z,102170.75
2023-02-11T10:09:14.587Z,102169.31
2023-02-11T10:14:32.534Z,102176.91
2023-02-11T10:19:46.808Z,102181.88
2023-02-11T10:24:54.791Z,102175.97
2023-02-11T10:30:03.055Z,102183.28
2023-02-11T10:35:15.138Z,102177.09
2023-02-11T10:40:22.203Z,102211.72
2023-02-11T10:45:29.998Z,102223.28
2023-02-11T10:50:34.905Z,102229.59
2023-02-11T10:55:38.981Z,102216.72
2023-02-11T11:00:43.275Z,102214.63
2023-02-11T11:05:50.964Z,102212.81
2023-02-11T11:11:06.493Z,102224.34
2023-02-11T11:16:22.132Z,102235.34
2023-02-11T11:21:27.377Z,102232.16
2023-02-11T11:26:42.564Z,102238.75
2023-02-11T11:31:52.903Z,102235.47
2023-02-11T11:36:57.121Z,102228.34
2023-02-11T11:42:03.198Z,102228.72
2023-02-11T11:47:21.032Z,102236.47
2023-02-11T11:52:36.629Z,102259.34
2023-02-11T11:57:40.925Z,102266.03
2023-02-11T12:03:18.557Z,102248.84
2023-02-11T12:08:34.619Z,102241.91
2023-02-11T12:13:49.947Z,102264.19
2023-02-11T12:19:20.014Z,102261.44
2023-02-11T12:24:37.889Z,102259.31
2023-02-11T12:29:56.501Z,102267.84
2023-02-11T12:35:26.469Z,102273.31
2023-02-11T12:40:38.410Z,102286.31
2023-02-11T12:45:54.915Z,102286.59
2023-02-11T12:51:02.560Z,102284.47
2023-02-11T12:56:12.631Z,102289.88
2023-02-11T13:01:23.202Z,102295.88
2023-02-11T13:06:30.378Z,102308.38
2023-02-11T13:11:38.472Z,102311.75
2023-02-11T13:16:44.751Z,102313.84
2023-02-11T13:21:56.852Z,102307.53
2023-02-11T13:27:05.086Z,102298.06
2023-02-11T13:32:11.082Z,102315.66
2023-02-11T13:37:22.180Z,102336.13
2023-02-11T13:42:25.250Z,102339.00
2023-02-11T13:47:32.863Z,102343.47
2023-02-11T13:52:38.181Z,102354.13
2023-02-11T13:57:41.315Z,102350.00
2023-02-11T14:03:02.501Z,102356.06
2023-02-11T14:08:31.974Z,102364.09
2023-02-11T14:13:36.246Z,102376.16
2023-02-11T14:18:59.804Z,102382.16
2023-02-11T14:24:39.680Z,102386.00
2023-02-11T14:29:50.973Z,102392.69
2023-02-11T14:35:04.282Z,102392.56
2023-02-11T14:40:19.946Z,102401.00
2023-02-11T14:45:27.314Z,102407.31
2023-02-11T14:50:35.482Z,102428.31
2023-02-11T14:55:42.655Z,102435.41
2023-02-11T15:00:56.566Z,102432.50
2023-02-11T15:06:02.895Z,102433.59
2023-02-11T15:11:11.402Z,102438.13
2023-02-11T15:16:18.408Z,102438.00
2023-02-11T15:21:24.675Z,102435.00
2023-02-11T15:26:27.493Z,102447.22
2023-02-11T15:31:32.400Z,102460.34
2023-02-11T15:36:38.795Z,102461.00
2023-02-11T15:41:41.291Z,102464.25
2023-02-11T15:46:47.341Z,102477.66
2023-02-11T15:51:53.580Z,102476.75
2023-02-11T15:57:02.664Z,102478.84
2023-02-11T16:02:10.947Z,102483.53
2023-02-11T16:07:41.741Z,102485.91
2023-02-11T16:12:52.518Z,102483.00
2023-02-11T16:17:55.090Z,102502.84
2023-02-11T16:22:59.088Z,102510.53
2023-02-11T16:28:02.152Z,102493.75
2023-02-11T16:33:05.686Z,102509.50
2023-02-11T16:38:09.591Z,102516.56
2023-02-11T16:43:12.092Z,102530.34
2023-02-11T16:48:19.449Z,102537.13
2023-02-11T16:53:25.622Z,102549.06
2023-02-11T16:58:28.096Z,102540.94
2023-02-11T17:03:35.529Z,102546.69
2023-02-11T17:08:39.463Z,102568.81
2023-02-11T17:13:42.177Z,102580.19
2023-02-11T17:18:44.710Z,102588.28
2023-02-11T17:23:48.513Z,102581.06
2023-02-11T17:28:51.223Z,102600.88
2023-02-11T17:33:53.724Z,102611.31
2023-02-11T17:38:58.800Z,102620.63
2023-02-11T17:44:02.258Z,102621.50
2023-02-11T17:49:04.917Z,102629.28
2023-02-11T17:54:11.380Z,102635.22
2023-02-11T17:59:14.726Z,102645.72
2023-02-11T18:04:19.020Z,102667.78
2023-02-11T18:09:22.899Z,102663.16
2023-02-11T18:14:25.460Z,102677.50
2023-02-11T18:19:30.479Z,102693.69
2023-02-11T18:24:34.348Z,102688.91
2023-02-11T18:29:36.872Z,102706.03
2023-02-11T18:34:40.748Z,102715.09
2023-02-11T18:39:44.635Z,102714.63
2023-02-11T18:44:47.199Z,102718.16
2023-02-11T18:49:49.723Z,102714.00
2023-02-11T18:54:53.566Z,102707.06
2023-02-11T18:59:56.046Z,102724.47
2023-02-11T19:04:58.510Z,102741.28
2023-02-11T19:10:02.327Z,102748.19
2023-02-11T19:15:05.476Z,102743.28
2023-02-11T19:20:09.427Z,102751.13
2023-02-11T19:25:13.666Z,102763.47
2023-02-11T19:30:16.239Z,102769.47
2023-02-11T19:35:19.021Z,102774.56
2023-02-11T19:40:22.957Z,102788.56
2023-02-11T19:45:26.339Z,102782.84
2023-02-11T19:50:28.856Z,102796.22
2023-02-11T19:55:35.453Z,102793.00
2023-02-11T20:00:37.958Z,102803.47
2023-02-11T20:05:43.381Z,102815.66
2023-02-11T20:10:47.417Z,102821.50
2023-02-11T20:15:50.200Z,102832.75
2023-02-11T20:20:53.110Z,102834.44
2023-02-11T20:25:57.019Z,102837.06
2023-02-11T20:31:00.271Z,102844.13
2023-02-11T20:36:05.128Z,102840.75
2023-02-11T20:41:13.838Z,102855.69
2023-02-11T20:46:18.827Z,102863.84
2023-02-11T20:51:23.877Z,102870.16
2023-02-11T20:56:29.910Z,102875.38
2023-02-11T21:01:34.954Z,102886.38
2023-02-11T21:06:39.947Z,102907.13
2023-02-11T21:11:44.173Z,102906.22
2023-02-11T21:16:47.489Z,102910.25
2023-02-11T21:21:50.103Z,102909.16
2023-02-11T21:26:53.930Z,102930.69
2023-02-11T21:31:56.555Z,102938.72
2023-02-11T21:36:59.228Z,102948.28
2023-02-11T21:42:03.049Z,102959.50
2023-02-11T21:47:05.700Z,102963.81
2023-02-11T21:52:08.219Z,102963.97
2023-02-11T21:57:12.054Z,102974.44
2023-02-11T22:02:14.576Z,102970.72
2023-02-11T22:07:17.104Z,102972.41
2023-02-11T22:12:20.996Z,102974.72
2023-02-11T22:17:24.182Z,102989.50
2023-02-11T22:22:26.784Z,102989.38
2023-02-11T22:27:30.716Z,102991.97
2023-02-11T22:32:33.229Z,103001.19
2023-02-11T22:37:35.834Z,103014.28
2023-02-11T22:42:39.658Z,103004.63
2023-02-11T22:47:42.254Z,103013.22
2023-02-11T22:52:44.901Z,103015.09
2023-02-11T22:57:48.729Z,103026.16
2023-02-11T23:02:51.673Z,103032.91
2023-02-11T23:07:54.170Z,103036.31
2023-02-11T23:12:58.020Z,103037.06
2023-02-11T23:18:00.680Z,103034.91
2023-02-11T23:23:03.397Z,103035.66
2023-02-11T23:28:07.354Z,103038.91
2023-02-11T23:33:09.895Z,103039.53
2023-02-11T23:38:12.469Z,103029.66
2023-02-11T23:43:16.446Z,103035.66
2023-02-11T23:48:19.117Z,103051.78
2023-02-11T23:53:21.663Z,103051.47
2023-02-11T23:58:25.560Z,103058.84
